Time;durP1;ratioP1;P1;durP2;ratioP2;P2;SDS_P1;SDS_P2;PMS_P1;PMS_P2;Temp;Humidity;BMP_temperature;BMP_pressure;BME280_temperature;BME280_humidity;BME280_pressure;Samples;Min_cycle;Max_cycle;Signal;HPM_P1;HPM_P2
2021/06/11 00:00:16;;;;;;;5.33;3.60;;;20.80;99.90;;;;;;1814757;79;21116;-78
2021/06/11 00:02:43;;;;;;;5.08;3.60;;;20.70;99.90;;;;;;1813158;79;21108;-79
2021/06/11 00:05:11;;;;;;;6.20;3.67;;;20.70;99.90;;;;;;1807971;78;21052;-79
2021/06/11 00:07:39;;;;;;;6.28;3.90;;;20.70;99.90;;;;;;1804861;78;21229;-78
2021/06/11 00:10:09;;;;;;;5.97;3.60;;;20.70;99.90;;;;;;1815852;79;21143;-80
2021/06/11 00:12:38;;;;;;;5.40;3.70;;;20.70;99.90;;;;;;1805131;79;21081;-79
2021/06/11 00:15:07;;;;;;;4.72;3.50;;;20.60;99.90;;;;;;1808436;79;21233;-79
2021/06/11 00:17:34;;;;;;;4.10;3.35;;;20.60;99.90;;;;;;1810508;79;21193;-77
2021/06/11 00:20:03;;;;;;;5.62;3.17;;;20.60;99.90;;;;;;1812751;77;22218;-77
2021/06/11 00:22:30;;;;;;;5.40;3.30;;;20.50;99.90;;;;;;1804252;79;21049;-77
2021/06/11 00:24:58;;;;;;;5.22;3.25;;;20.50;99.90;;;;;;1806249;79;21803;-78
2021/06/11 00:27:25;;;;;;;7.95;3.67;;;20.50;99.90;;;;;;1806874;79;21096;-78
2021/06/11 00:29:53;;;;;;;6.15;3.10;;;20.40;99.90;;;;;;1810498;79;21132;-80
2021/06/11 00:32:20;;;;;;;4.75;3.55;;;20.40;99.90;;;;;;1811308;79;21128;-78
2021/06/11 00:34:48;;;;;;;3.87;3.47;;;20.40;99.90;;;;;;1811256;79;21089;-78
2021/06/11 00:37:15;;;;;;;8.28;3.42;;;20.40;99.90;;;;;;1811488;79;21159;-80
2021/06/11 00:39:42;;;;;;;5.92;3.77;;;20.40;99.90;;;;;;1801559;77;21140;-78
2021/06/11 00:42:10;;;;;;;5.22;4.05;;;20.40;99.90;;;;;;1804998;79;21194;-78
2021/06/11 00:44:37;;;;;;;5.25;3.22;;;20.40;99.90;;;;;;1797307;78;21107;-77
2021/06/11 00:47:05;;;;;;;3.92;3.27;;;20.40;99.90;;;;;;1814477;79;21113;-79
2021/06/11 00:49:33;;;;;;;5.95;3.50;;;20.30;99.90;;;;;;1810538;77;21230;-78
2021/06/11 00:52:00;;;;;;;4.30;3.40;;;20.30;99.90;;;;;;1811956;78;21108;-80
2021/06/11 00:54:29;;;;;;;5.12;3.60;;;20.30;99.90;;;;;;1811167;78;21052;-79
2021/06/11 00:56:56;;;;;;;4.50;3.70;;;20.30;99.90;;;;;;1805123;79;21088;-80
2021/06/11 00:59:25;;;;;;;5.00;3.40;;;20.20;99.90;;;;;;1806962;79;21089;-79
2021/06/11 01:01:52;;;;;;;7.42;4.05;;;20.20;99.90;;;;;;1811012;79;21892;-80
2021/06/11 01:04:20;;;;;;;4.30;3.40;;;20.10;99.90;;;;;;1803983;78;21518;-77
2021/06/11 01:06:49;;;;;;;5.72;3.42;;;20.10;99.90;;;;;;1810573;79;21120;-78
2021/06/11 01:09:17;;;;;;;7.37;3.50;;;20.10;99.90;;;;;;1793919;79;21101;-78
2021/06/11 01:11:46;;;;;;;5.40;3.27;;;20.10;99.90;;;;;;1814456;78;21593;-76
2021/06/11 01:14:14;;;;;;;5.35;3.50;;;20.10;99.90;;;;;;1815543;79;21088;-77
2021/06/11 01:16:41;;;;;;;5.83;3.62;;;20.10;99.90;;;;;;1802368;79;22135;-77
2021/06/11 01:19:12;;;;;;;7.62;3.77;;;20.10;99.90;;;;;;1801684;78;21574;-77
2021/06/11 01:21:48;;;;;;;7.30;3.33;;;20.10;99.90;;;;;;1811176;79;21175;-77
2021/06/11 01:24:24;;;;;;;4.80;3.47;;;20.00;99.90;;;;;;1807020;79;21072;-77
2021/06/11 01:26:55;;;;;;;7.87;3.45;;;20.00;99.90;;;;;;1808854;79;21139;-78
2021/06/11 01:29:25;;;;;;;9.15;3.20;;;20.00;99.90;;;;;;1817220;77;21062;-76
2021/06/11 01:31:56;;;;;;;7.62;3.42;;;20.00;99.90;;;;;;1818387;79;21056;-78
2021/06/11 01:34:27;;;;;;;5.78;3.83;;;20.00;99.90;;;;;;1799717;79;21074;-78
2021/06/11 01:37:03;;;;;;;5.40;3.47;;;19.90;99.90;;;;;;1813556;78;21610;-78
2021/06/11 01:39:33;;;;;;;5.47;4.17;;;19.90;99.90;;;;;;1817955;78;21092;-78
2021/06/11 01:42:01;;;;;;;10.53;3.65;;;19.90;99.90;;;;;;1805567;79;21399;-78
2021/06/11 01:44:30;;;;;;;5.40;3.42;;;19.90;99.90;;;;;;1805369;79;21107;-77
2021/06/11 01:47:01;;;;;;;4.53;3.47;;;19.90;99.90;;;;;;1795956;79;21095;-77
2021/06/11 01:49:30;;;;;;;6.33;3.75;;;19.80;99.90;;;;;;1804808;79;21096;-77
2021/06/11 01:52:00;;;;;;;6.15;3.42;;;19.80;99.90;;;;;;1808254;78;21178;-78
2021/06/11 01:54:35;;;;;;;6.10;3.22;;;19.80;99.90;;;;;;1816817;79;21056;-78
2021/06/11 01:57:03;;;;;;;3.90;3.40;;;19.80;99.90;;;;;;1805612;79;21533;-80
2021/06/11 01:59:33;;;;;;;6.85;3.55;;;19.70;99.90;;;;;;1816602;79;21092;-80
2021/06/11 02:02:03;;;;;;;5.35;3.52;;;19.70;99.90;;;;;;1813587;79;21164;-80
2021/06/11 02:04:31;;;;;;;6.53;3.62;;;19.60;99.90;;;;;;1803418;78;21719;-80
2021/06/11 02:07:00;;;;;;;6.53;3.60;;;19.60;99.90;;;;;;1806127;78;21142;-79
2021/06/11 02:09:28;;;;;;;4.20;3.45;;;19.60;99.90;;;;;;1809053;79;21227;-79
2021/06/11 02:11:56;;;;;;;5.40;3.83;;;19.60;99.90;;;;;;1807211;79;21665;-79
2021/06/11 02:14:24;;;;;;;4.45;3.40;;;19.60;99.90;;;;;;1800422;79;21126;-78
2021/06/11 02:16:54;;;;;;;4.37;3.85;;;19.60;99.90;;;;;;1807172;79;21510;-77
2021/06/11 02:19:22;;;;;;;6.65;3.90;;;19.60;99.90;;;;;;1816575;77;21144;-76
2021/06/11 02:21:51;;;;;;;5.67;3.50;;;19.60;99.90;;;;;;1817432;79;21108;-75
2021/06/11 02:24:20;;;;;;;6.03;3.70;;;19.60;99.90;;;;;;1809178;79;21095;-76
2021/06/11 02:26:49;;;;;;;7.75;4.05;;;19.50;99.90;;;;;;1804967;78;21402;-77
2021/06/11 02:29:17;;;;;;;5.95;3.70;;;19.40;99.90;;;;;;1818991;79;21590;-76
2021/06/11 02:31:45;;;;;;;5.17;3.90;;;19.50;99.90;;;;;;1809244;79;21138;-78
2021/06/11 02:34:13;;;;;;;11.40;3.98;;;19.50;99.90;;;;;;1815061;78;21170;-81
2021/06/11 02:36:41;;;;;;;7.67;4.30;;;19.40;99.90;;;;;;1808343;79;21197;-78
2021/06/11 02:39:08;;;;;;;4.53;3.60;;;19.50;99.90;;;;;;1807592;77;21250;-80
2021/06/11 02:41:42;;;;;;;6.15;3.80;;;19.50;99.90;;;;;;1812252;79;21717;-78
2021/06/11 02:44:11;;;;;;;9.15;3.50;;;19.40;99.90;;;;;;1803481;79;21158;-79
2021/06/11 02:46:51;;;;;;;5.70;4.03;;;19.40;99.90;;;;;;1812533;79;21585;-82
2021/06/11 02:49:30;;;;;;;5.08;3.45;;;19.30;99.90;;;;;;1811414;79;21147;-81
2021/06/11 02:52:04;;;;;;;9.43;3.80;;;19.30;99.90;;;;;;1808867;79;21142;-80
2021/06/11 02:54:37;;;;;;;7.40;3.55;;;19.30;99.90;;;;;;1807072;78;21076;-79
2021/06/11 02:57:23;;;;;;;6.90;3.60;;;19.30;99.90;;;;;;1805649;79;21116;-78
2021/06/11 02:59:56;;;;;;;4.58;3.60;;;19.20;99.90;;;;;;1815056;79;21215;-79
2021/06/11 03:02:30;;;;;;;8.48;3.70;;;19.20;99.90;;;;;;1808964;79;21116;-80
2021/06/11 03:04:58;;;;;;;5.92;3.87;;;19.20;99.90;;;;;;1804483;79;22306;-79
2021/06/11 03:07:29;;;;;;;5.95;3.42;;;19.20;99.90;;;;;;1805213;79;21095;-80
2021/06/11 03:10:02;;;;;;;6.17;3.30;;;19.10;99.90;;;;;;1797540;79;21155;-79
2021/06/11 03:12:32;;;;;;;5.20;3.60;;;19.10;99.90;;;;;;1807990;79;21685;-78
2021/06/11 03:15:00;;;;;;;4.90;3.80;;;19.10;99.90;;;;;;1797295;79;21546;-78
2021/06/11 03:17:33;;;;;;;5.50;3.40;;;19.10;99.90;;;;;;1812973;78;21082;-78
2021/06/11 03:20:04;;;;;;;5.60;3.80;;;19.10;99.90;;;;;;1805080;79;21147;-78
2021/06/11 03:22:34;;;;;;;6.00;3.60;;;19.10;99.90;;;;;;1815992;79;21103;-78
2021/06/11 03:25:10;;;;;;;5.17;3.95;;;19.10;99.90;;;;;;1799971;78;21158;-76
2021/06/11 03:27:44;;;;;;;7.95;3.70;;;19.10;99.90;;;;;;1788035;79;21546;-78
2021/06/11 03:30:13;;;;;;;9.90;4.22;;;19.10;99.90;;;;;;1844331;75;21230;-77
2021/06/11 03:33:01;;;;;;;8.13;4.00;;;19.10;99.90;;;;;;1862036;75;21108;-79
2021/06/11 03:35:38;;;;;;;4.30;3.70;;;19.10;99.90;;;;;;1860298;75;21178;-82
2021/06/11 03:38:08;;;;;;;4.30;3.90;;;19.00;99.90;;;;;;1866568;75;21037;-80
2021/06/11 03:40:39;;;;;;;6.42;4.20;;;19.00;99.90;;;;;;1834682;77;21041;-79
2021/06/11 03:43:09;;;;;;;5.20;4.25;;;19.00;99.90;;;;;;1832130;78;21597;-82
2021/06/11 03:45:37;;;;;;;7.78;3.77;;;19.10;99.90;;;;;;1827854;77;21527;-79
2021/06/11 03:48:06;;;;;;;5.22;3.95;;;19.10;99.90;;;;;;1832042;78;21030;-78
2021/06/11 03:50:34;;;;;;;4.97;3.87;;;19.10;99.90;;;;;;1831494;77;21229;-78
2021/06/11 03:53:05;;;;;;;6.75;3.92;;;19.10;99.90;;;;;;1829386;77;21445;-80
2021/06/11 03:55:41;;;;;;;5.60;4.30;;;19.10;99.90;;;;;;1831521;77;21080;-82
2021/06/11 03:58:17;;;;;;;6.37;3.85;;;19.20;99.90;;;;;;1832135;77;21384;-81
2021/06/11 04:00:45;;;;;;;5.72;4.10;;;19.10;99.90;;;;;;1830020;77;21193;-82
2021/06/11 04:03:13;;;;;;;5.25;3.72;;;19.20;99.90;;;;;;1832783;78;21061;-81
2021/06/11 04:05:40;;;;;;;4.83;3.50;;;19.20;99.90;;;;;;1833200;77;21596;-81
2021/06/11 04:08:11;;;;;;;8.48;4.58;;;19.20;99.90;;;;;;1832295;77;21109;-80
2021/06/11 04:10:42;;;;;;;5.95;4.10;;;19.20;99.90;;;;;;1832526;77;21207;-80
2021/06/11 04:13:15;;;;;;;5.33;4.12;;;19.20;99.90;;;;;;1832274;77;21038;-78
2021/06/11 04:15:45;;;;;;;6.55;4.10;;;19.20;99.90;;;;;;1832679;77;21540;-77
2021/06/11 04:18:14;;;;;;;11.28;4.12;;;19.20;99.90;;;;;;1830890;77;21193;-77
2021/06/11 04:20:43;;;;;;;7.90;4.50;;;19.20;99.90;;;;;;1832362;77;21135;-77
2021/06/11 04:23:12;;;;;;;5.83;4.12;;;19.30;99.90;;;;;;1833025;77;21536;-78
2021/06/11 04:25:41;;;;;;;6.05;4.67;;;19.30;99.90;;;;;;1831587;77;21068;-79
2021/06/11 04:28:11;;;;;;;6.83;4.67;;;19.40;99.90;;;;;;1830704;77;21382;-80
2021/06/11 04:30:38;;;;;;;10.65;5.28;;;19.40;99.90;;;;;;1829632;77;21056;-79
2021/06/11 04:33:26;;;;;;;10.10;5.40;;;19.50;99.90;;;;;;1832598;77;21013;-76
2021/06/11 04:35:54;;;;;;;13.53;5.58;;;19.50;99.90;;;;;;1830403;77;21063;-77
2021/06/11 04:38:23;;;;;;;9.00;5.75;;;19.60;99.90;;;;;;1832541;77;21061;-77
2021/06/11 04:40:51;;;;;;;10.43;6.10;;;19.60;99.90;;;;;;1832403;77;21570;-77
2021/06/11 04:43:20;;;;;;;15.08;6.62;;;19.60;99.90;;;;;;1827771;77;21139;-76
2021/06/11 04:45:48;;;;;;;11.88;6.15;;;19.70;99.90;;;;;;1826446;77;21129;-77
2021/06/11 04:48:15;;;;;;;8.30;6.25;;;19.70;99.90;;;;;;1779716;80;21129;-76
2021/06/11 04:50:43;;;;;;;9.30;6.15;;;19.70;99.90;;;;;;1832014;77;21514;-76
2021/06/11 04:53:10;;;;;;;10.85;6.08;;;19.80;99.90;;;;;;1832072;77;21496;-76
2021/06/11 04:55:38;;;;;;;10.25;6.65;;;19.80;99.90;;;;;;1827607;78;21081;-76
2021/06/11 04:58:05;;;;;;;9.78;6.03;;;19.90;99.90;;;;;;1831330;77;21120;-75
2021/06/11 05:00:33;;;;;;;10.25;6.42;;;19.90;99.90;;;;;;1782168;79;21153;-76
2021/06/11 05:03:00;;;;;;;13.85;6.05;;;20.00;99.90;;;;;;1823584;77;21111;-75
2021/06/11 05:05:28;;;;;;;11.70;6.35;;;20.00;99.90;;;;;;1831648;77;21136;-77
2021/06/11 05:07:55;;;;;;;13.22;6.00;;;20.00;99.90;;;;;;1828834;77;21182;-79
2021/06/11 05:10:23;;;;;;;10.88;6.37;;;20.10;99.90;;;;;;1831830;77;21089;-78
2021/06/11 05:12:51;;;;;;;12.03;6.17;;;20.20;99.90;;;;;;1832578;77;21086;-77
2021/06/11 05:15:19;;;;;;;8.35;6.10;;;20.20;99.90;;;;;;1798767;80;21602;-77
2021/06/11 05:17:47;;;;;;;9.95;6.00;;;20.20;99.90;;;;;;1825379;77;21132;-78
2021/06/11 05:20:15;;;;;;;8.93;6.30;;;20.30;99.90;;;;;;1830674;77;21231;-76
2021/06/11 05:22:43;;;;;;;9.80;5.92;;;20.40;99.90;;;;;;1782284;80;21145;-77
2021/06/11 05:25:11;;;;;;;8.18;6.10;;;20.40;99.90;;;;;;1829644;77;21684;-79
2021/06/11 05:27:38;;;;;;;10.45;5.78;;;20.40;99.90;;;;;;1770825;80;21466;-77
2021/06/11 05:30:06;;;;;;;9.88;6.25;;;20.50;99.90;;;;;;1824329;77;21177;-78
2021/06/11 05:32:34;;;;;;;11.25;5.72;;;20.60;99.90;;;;;;1772416;79;21141;-79
2021/06/11 05:35:01;;;;;;;12.73;6.00;;;20.60;99.90;;;;;;1832072;77;21279;-81
2021/06/11 05:37:29;;;;;;;8.95;5.90;;;20.60;99.90;;;;;;1781014;79;21114;-78
2021/06/11 05:39:56;;;;;;;8.43;5.90;;;20.70;99.90;;;;;;1800713;78;21252;-80
2021/06/11 05:42:24;;;;;;;7.75;6.10;;;20.80;99.90;;;;;;1817766;77;21199;-78
2021/06/11 05:44:52;;;;;;;9.10;5.35;;;20.80;99.90;;;;;;1798706;78;21123;-75
2021/06/11 05:47:19;;;;;;;9.20;6.55;;;20.90;99.90;;;;;;1829691;77;21147;-76
2021/06/11 05:49:47;;;;;;;8.43;6.10;;;21.00;99.90;;;;;;1771425;79;21220;-76
2021/06/11 05:52:14;;;;;;;7.72;5.75;;;21.00;99.90;;;;;;1828569;77;21124;-78
2021/06/11 05:54:42;;;;;;;8.18;5.70;;;21.10;99.90;;;;;;1831213;77;21155;-76
2021/06/11 05:57:09;;;;;;;9.18;5.90;;;21.20;99.90;;;;;;1772836;80;21133;-77
2021/06/11 05:59:37;;;;;;;7.87;6.10;;;21.20;99.90;;;;;;1832110;76;21129;-74
2021/06/11 06:02:05;;;;;;;9.05;6.22;;;21.30;99.90;;;;;;1827708;77;21615;-76
2021/06/11 06:04:32;;;;;;;9.13;6.03;;;21.30;99.90;;;;;;1770443;79;21129;-76
2021/06/11 06:07:00;;;;;;;10.50;5.95;;;21.40;99.90;;;;;;1828092;77;21926;-79
2021/06/11 06:09:27;;;;;;;8.15;6.30;;;21.40;99.90;;;;;;1831877;77;21594;-79
2021/06/11 06:11:55;;;;;;;10.88;5.80;;;21.50;99.90;;;;;;1819985;77;21210;-77
2021/06/11 06:14:22;;;;;;;7.50;5.62;;;21.50;99.90;;;;;;1823352;77;21629;-77
2021/06/11 06:16:50;;;;;;;11.53;5.87;;;21.50;99.90;;;;;;1826812;77;21140;-77
2021/06/11 06:19:17;;;;;;;9.83;5.55;;;21.60;99.90;;;;;;1830784;77;21159;-76
2021/06/11 06:21:45;;;;;;;8.68;5.55;;;21.60;99.90;;;;;;1827125;77;21112;-76
2021/06/11 06:24:12;;;;;;;8.75;5.42;;;21.70;99.90;;;;;;1825483;77;21140;-75
2021/06/11 06:26:40;;;;;;;8.33;5.33;;;21.80;99.90;;;;;;1830674;77;21538;-75
2021/06/11 06:29:07;;;;;;;7.72;5.60;;;21.80;99.90;;;;;;1764968;79;21173;-76
2021/06/11 06:31:35;;;;;;;9.05;5.83;;;21.90;99.90;;;;;;1829509;77;21488;-76
2021/06/11 06:34:02;;;;;;;6.58;5.40;;;21.90;99.90;;;;;;1822997;77;21173;-73
2021/06/11 06:36:30;;;;;;;7.15;5.25;;;22.00;99.90;;;;;;1824548;77;21229;-72
2021/06/11 06:39:01;;;;;;;13.72;5.60;;;22.10;99.90;;;;;;1828524;77;21132;-72
2021/06/11 06:41:27;;;;;;;8.60;5.28;;;22.10;99.90;;;;;;1828235;77;21140;-75
2021/06/11 06:43:55;;;;;;;7.47;5.28;;;22.10;99.90;;;;;;1784280;78;21164;-76
2021/06/11 06:46:24;;;;;;;9.00;5.47;;;22.20;99.90;;;;;;1830707;77;21085;-76
2021/06/11 06:48:52;;;;;;;9.05;5.20;;;22.30;99.90;;;;;;1829352;78;21187;-76
2021/06/11 06:51:23;;;;;;;7.62;5.75;;;22.30;99.90;;;;;;1827825;77;21093;-76
2021/06/11 06:53:51;;;;;;;8.15;5.47;;;22.40;99.90;;;;;;1824612;78;21615;-75
2021/06/11 06:56:18;;;;;;;7.10;5.17;;;22.40;99.90;;;;;;1761035;80;21133;-74
2021/06/11 06:58:46;;;;;;;12.80;6.72;;;22.40;99.90;;;;;;1828431;77;21144;-73
2021/06/11 07:01:13;;;;;;;9.85;6.08;;;22.50;99.90;;;;;;1829230;77;21194;-73
2021/06/11 07:03:41;;;;;;;7.40;5.40;;;22.50;99.90;;;;;;1827328;78;21119;-73
2021/06/11 07:06:08;;;;;;;7.53;5.58;;;22.60;99.90;;;;;;1829669;77;21209;-73
2021/06/11 07:08:36;;;;;;;7.03;5.08;;;22.60;99.90;;;;;;1778924;78;21577;-74
2021/06/11 07:11:03;;;;;;;7.53;5.20;;;22.70;99.90;;;;;;1827576;77;21077;-73
2021/06/11 07:13:35;;;;;;;7.72;5.08;;;22.70;99.90;;;;;;1783725;79;21124;-73
2021/06/11 07:16:00;;;;;;;6.53;5.00;;;22.80;99.90;;;;;;1827145;77;21207;-73
2021/06/11 07:18:27;;;;;;;8.13;5.15;;;22.90;99.90;;;;;;1818881;78;21178;-73
2021/06/11 07:20:55;;;;;;;8.28;5.10;;;22.80;99.90;;;;;;1798445;79;21077;-73
2021/06/11 07:23:22;;;;;;;6.33;5.12;;;22.90;99.90;;;;;;1818508;78;21100;-73
2021/06/11 07:25:50;;;;;;;9.83;4.55;;;22.90;99.90;;;;;;1759608;80;21603;-73
2021/06/11 07:28:17;;;;;;;6.95;4.10;;;23.00;99.90;;;;;;1831817;78;21182;-73
2021/06/11 07:30:45;;;;;;;8.20;4.40;;;23.00;99.90;;;;;;1831059;78;21107;-73
2021/06/11 07:33:12;;;;;;;6.67;4.10;;;23.10;99.90;;;;;;1840691;77;21115;-73
2021/06/11 07:35:40;;;;;;;6.78;4.30;;;23.20;99.90;;;;;;1785272;80;21129;-73
2021/06/11 07:38:07;;;;;;;8.03;4.45;;;23.20;99.90;;;;;;1829481;78;21198;-73
2021/06/11 07:40:35;;;;;;;10.15;5.90;;;23.20;99.90;;;;;;1792123;80;21217;-73
2021/06/11 07:43:02;;;;;;;7.65;5.20;;;23.20;99.90;;;;;;1826041;78;21116;-73
2021/06/11 07:45:31;;;;;;;8.00;5.53;;;23.20;99.90;;;;;;1824287;78;21169;-73
2021/06/11 07:47:58;;;;;;;11.55;5.95;;;23.30;99.90;;;;;;1813702;78;21183;-73
2021/06/11 07:50:28;;;;;;;11.65;6.03;;;23.40;99.90;;;;;;1780680;78;21229;-73
2021/06/11 07:52:55;;;;;;;8.55;5.95;;;23.40;99.90;;;;;;1770624;80;21079;-73
2021/06/11 07:55:23;;;;;;;11.80;6.22;;;23.40;99.90;;;;;;1815496;78;21069;-73
2021/06/11 07:57:50;;;;;;;9.73;5.75;;;23.40;99.90;;;;;;1775293;80;21121;-73
2021/06/11 08:00:18;;;;;;;14.53;6.83;;;23.50;99.90;;;;;;1831418;78;21519;-73
2021/06/11 08:02:46;;;;;;;10.68;6.28;;;23.50;99.90;;;;;;1827215;78;21147;-73
2021/06/11 08:05:13;;;;;;;10.15;4.97;;;23.50;99.90;;;;;;1759396;81;21063;-74
2021/06/11 08:07:41;;;;;;;10.53;5.15;;;23.50;99.90;;;;;;1832028;78;21205;-75
2021/06/11 08:10:09;;;;;;;9.48;5.17;;;23.60;99.90;;;;;;1831800;77;21152;-74
2021/06/11 08:12:36;;;;;;;10.53;5.17;;;23.60;99.90;;;;;;1832177;78;21116;-74
2021/06/11 08:15:05;;;;;;;11.73;4.42;;;23.50;99.90;;;;;;1784116;80;21550;-74
2021/06/11 08:17:33;;;;;;;10.13;4.20;;;23.60;99.90;;;;;;1831208;78;21121;-75
2021/06/11 08:20:01;;;;;;;8.83;3.42;;;23.70;99.90;;;;;;1830918;77;21718;-75
2021/06/11 08:22:28;;;;;;;7.40;2.90;;;23.80;99.90;;;;;;1774149;80;21196;-74
2021/06/11 08:24:56;;;;;;;9.08;3.02;;;23.80;98.70;;;;;;1829959;77;21067;-74
2021/06/11 08:27:23;;;;;;;4.97;3.15;;;23.80;97.70;;;;;;1822363;77;21186;-74
2021/06/11 08:29:51;;;;;;;4.75;2.60;;;23.90;97.20;;;;;;1772946;79;21607;-75
2021/06/11 08:32:18;;;;;;;6.90;2.45;;;23.90;97.50;;;;;;1819304;77;21107;-74
2021/06/11 08:34:46;;;;;;;6.95;2.98;;;23.90;97.00;;;;;;1827323;77;21069;-74
2021/06/11 08:37:13;;;;;;;5.17;2.20;;;24.00;97.10;;;;;;1784208;80;21228;-75
2021/06/11 08:39:41;;;;;;;8.43;3.10;;;24.00;97.00;;;;;;1831358;77;21195;-75
2021/06/11 08:42:09;;;;;;;5.40;3.27;;;24.10;96.80;;;;;;1771500;78;21619;-75
2021/06/11 08:44:37;;;;;;;4.15;3.30;;;24.10;96.80;;;;;;1827898;77;21069;-74
2021/06/11 08:47:04;;;;;;;3.22;2.65;;;24.10;97.00;;;;;;1766196;80;21169;-74
2021/06/11 08:49:32;;;;;;;4.22;2.37;;;24.20;96.90;;;;;;1830092;77;21758;-74
2021/06/11 08:52:00;;;;;;;7.50;2.62;;;24.20;96.70;;;;;;1797738;78;21105;-74
2021/06/11 08:54:28;;;;;;;5.53;2.10;;;24.20;96.60;;;;;;1826023;77;21081;-74
2021/06/11 08:56:55;;;;;;;5.60;2.35;;;24.20;96.60;;;;;;1833955;77;21784;-75
2021/06/11 08:59:23;;;;;;;6.30;3.75;;;24.30;96.80;;;;;;1795530;78;21194;-75
2021/06/11 09:01:51;;;;;;;4.37;3.08;;;24.30;95.80;;;;;;1821224;77;21201;-75
2021/06/11 09:04:21;;;;;;;7.00;3.75;;;24.40;96.40;;;;;;1796316;78;21094;-75
2021/06/11 09:06:49;;;;;;;5.22;3.27;;;24.40;96.10;;;;;;1803556;77;21194;-75
2021/06/11 09:09:16;;;;;;;7.15;3.42;;;24.50;96.20;;;;;;1821224;77;21648;-75
2021/06/11 09:11:49;;;;;;;10.20;4.42;;;24.60;96.60;;;;;;1830299;77;21132;-74
2021/06/11 09:14:15;;;;;;;5.83;3.70;;;24.50;97.10;;;;;;1829838;77;21601;-75
2021/06/11 09:16:48;;;;;;;4.83;3.72;;;24.60;96.50;;;;;;1829100;77;21203;-75
2021/06/11 09:19:20;;;;;;;7.08;4.08;;;24.70;96.40;;;;;;1828877;77;21147;-75
2021/06/11 09:21:49;;;;;;;8.17;3.90;;;24.70;96.80;;;;;;1766680;80;21251;-75
2021/06/11 09:24:26;;;;;;;13.53;4.35;;;24.80;96.90;;;;;;1830237;77;21089;-75
2021/06/11 09:27:04;;;;;;;7.72;3.80;;;24.80;97.20;;;;;;1831187;77;21601;-75
2021/06/11 09:29:46;;;;;;;5.50;4.30;;;24.90;98.40;;;;;;1764888;80;21651;-75
2021/06/11 09:32:26;;;;;;;9.58;4.33;;;24.90;97.30;;;;;;1793554;79;21468;-74
2021/06/11 09:34:56;;;;;;;6.33;4.20;;;25.00;97.70;;;;;;1820311;77;21128;-74
2021/06/11 09:37:34;;;;;;;14.75;9.35;;;25.00;97.10;;;;;;1828988;77;21183;-76
2021/06/11 09:40:10;;;;;;;6.78;5.65;;;25.10;96.90;;;;;;1831428;77;21615;-76
2021/06/11 09:42:51;;;;;;;9.05;5.53;;;25.10;96.40;;;;;;1830718;77;21187;-76
2021/06/11 09:45:20;;;;;;;9.20;6.87;;;25.10;97.10;;;;;;1830270;77;21090;-76
2021/06/11 09:47:52;;;;;;;6.92;4.37;;;25.30;97.30;;;;;;1825660;77;21140;-76
2021/06/11 09:50:27;;;;;;;6.95;4.30;;;25.30;98.20;;;;;;1822243;77;21182;-75
2021/06/11 09:52:57;;;;;;;7.03;3.80;;;25.40;98.50;;;;;;1825648;77;21200;-77
2021/06/11 09:55:43;;;;;;;4.90;4.17;;;25.50;97.50;;;;;;1825625;77;21166;-78
2021/06/11 09:58:20;;;;;;;8.98;5.40;;;25.50;97.40;;;;;;1832362;77;21186;-78
2021/06/11 10:00:56;;;;;;;8.05;4.70;;;25.40;96.70;;;;;;1831108;77;21131;-77
2021/06/11 10:03:29;;;;;;;9.88;5.25;;;25.50;97.40;;;;;;1832171;78;21060;-78
2021/06/11 10:06:04;;;;;;;8.78;5.62;;;25.50;97.20;;;;;;1823776;78;21155;-78
2021/06/11 10:08:32;;;;;;;11.57;5.08;;;25.60;96.70;;;;;;1831834;77;21596;-78
2021/06/11 10:11:02;;;;;;;9.48;4.97;;;25.60;97.80;;;;;;1831595;77;21233;-78
2021/06/11 10:13:30;;;;;;;6.20;3.92;;;25.70;98.40;;;;;;1796199;80;21071;-78
2021/06/11 10:16:01;;;;;;;5.45;3.00;;;25.70;99.10;;;;;;1798414;78;21106;-79
2021/06/11 10:18:28;;;;;;;6.00;2.77;;;25.80;96.50;;;;;;1793054;80;21141;-78
2021/06/11 10:20:58;;;;;;;5.20;3.33;;;25.90;96.60;;;;;;1791256;78;21058;-79
2021/06/11 10:23:27;;;;;;;6.78;3.80;;;25.80;96.10;;;;;;1792202;78;21211;-77
2021/06/11 10:25:55;;;;;;;4.62;3.45;;;25.70;95.60;;;;;;1788167;80;21614;-77
2021/06/11 10:28:28;;;;;;;7.87;3.30;;;25.80;95.50;;;;;;1798117;78;21337;-77
2021/06/11 10:30:59;;;;;;;6.25;2.70;;;25.90;95.90;;;;;;1798373;78;21117;-79
2021/06/11 10:33:49;;;;;;;5.17;3.00;;;26.00;97.30;;;;;;1798823;78;21105;-79
2021/06/11 10:36:30;;;;;;;8.48;3.00;;;26.10;97.20;;;;;;1797623;78;21599;-75
2021/06/11 10:39:03;;;;;;;3.10;1.98;;;26.10;94.90;;;;;;1797078;78;21333;-75
2021/06/11 10:41:33;;;;;;;4.92;2.70;;;26.20;95.90;;;;;;1783900;79;21143;-76
2021/06/11 10:44:01;;;;;;;3.35;2.30;;;26.20;95.10;;;;;;1823374;77;21134;-75
2021/06/11 10:46:32;;;;;;;5.60;3.02;;;26.30;95.10;;;;;;1827778;77;21080;-76
2021/06/11 10:49:11;;;;;;;4.70;3.05;;;26.30;94.80;;;;;;1821155;77;21176;-76
2021/06/11 10:51:47;;;;;;;5.95;3.50;;;26.40;95.30;;;;;;1829544;77;21280;-76
2021/06/11 10:54:20;;;;;;;5.33;3.58;;;26.30;94.10;;;;;;1816000;77;21147;-76
2021/06/11 10:57:12;;;;;;;6.00;3.35;;;26.30;94.70;;;;;;1775708;80;21664;-76
2021/06/11 10:59:50;;;;;;;8.40;2.95;;;26.40;94.40;;;;;;1825089;77;21148;-76
2021/06/11 11:02:19;;;;;;;5.83;3.12;;;26.40;96.00;;;;;;1768646;80;21176;-76
2021/06/11 11:04:50;;;;;;;7.17;2.77;;;26.50;94.90;;;;;;1823755;78;21118;-76
2021/06/11 11:07:33;;;;;;;8.10;3.27;;;26.50;95.40;;;;;;1797273;78;21326;-79
2021/06/11 11:10:06;;;;;;;6.70;4.15;;;26.50;94.50;;;;;;1828229;77;21118;-78
2021/06/11 11:13:04;;;;;;;18.65;6.15;;;26.50;94.90;;;;;;1828002;77;21652;-80
2021/06/11 11:15:34;;;;;;;5.85;3.87;;;26.60;95.00;;;;;;1792502;78;21168;-76
2021/06/11 11:18:03;;;;;;;5.58;3.12;;;26.50;95.10;;;;;;1789289;80;21126;-77
2021/06/11 11:20:34;;;;;;;6.85;3.02;;;26.40;94.60;;;;;;1808171;77;21216;-79
2021/06/11 11:23:07;;;;;;;4.25;2.25;;;26.50;95.20;;;;;;1832545;77;21128;-79
2021/06/11 11:25:34;;;;;;;5.87;2.47;;;26.50;94.30;;;;;;1834111;77;21134;-80
2021/06/11 11:28:02;;;;;;;4.83;2.30;;;26.60;94.50;;;;;;1770569;80;21094;-79
2021/06/11 11:30:30;;;;;;;5.03;3.17;;;26.80;95.00;;;;;;1772438;80;21146;-80
2021/06/11 11:33:01;;;;;;;7.45;3.50;;;26.80;93.60;;;;;;1833825;78;21125;-79
2021/06/11 11:35:31;;;;;;;6.67;2.92;;;26.80;93.90;;;;;;1835147;77;21090;-78
2021/06/11 11:38:01;;;;;;;4.75;2.25;;;26.80;94.40;;;;;;1834600;77;21445;-79
2021/06/11 11:40:29;;;;;;;8.23;3.08;;;26.90;95.60;;;;;;1833263;77;21342;-77
2021/06/11 11:43:02;;;;;;;6.97;2.67;;;26.90;94.60;;;;;;1782928;79;21074;-79
2021/06/11 11:45:32;;;;;;;4.97;2.62;;;26.80;94.50;;;;;;1835347;77;21180;-79
2021/06/11 11:48:02;;;;;;;3.85;2.05;;;26.70;94.90;;;;;;1826863;77;21094;-80
2021/06/11 11:50:33;;;;;;;3.40;2.10;;;26.80;95.60;;;;;;1833641;77;21223;-79
2021/06/11 11:53:01;;;;;;;7.28;1.70;;;26.80;95.40;;;;;;1834958;77;21161;-79
2021/06/11 11:55:28;;;;;;;4.87;1.70;;;26.90;94.90;;;;;;1833697;77;21213;-79
2021/06/11 11:57:56;;;;;;;2.72;1.40;;;27.00;95.60;;;;;;1823164;77;21041;-79
2021/06/11 12:00:27;;;;;;;3.25;2.08;;;27.10;95.30;;;;;;1807612;77;21366;-80
2021/06/11 12:02:56;;;;;;;4.92;1.70;;;27.20;95.00;;;;;;1825782;77;21263;-79
2021/06/11 12:05:24;;;;;;;2.72;1.75;;;27.10;94.70;;;;;;1826985;77;21120;-80
2021/06/11 12:07:51;;;;;;;3.50;1.87;;;27.10;94.70;;;;;;1824556;78;21061;-79
2021/06/11 12:10:19;;;;;;;4.40;1.60;;;27.10;94.00;;;;;;1833098;77;21136;-79
2021/06/11 12:12:46;;;;;;;3.58;1.50;;;27.10;94.70;;;;;;1835566;77;21103;-80
2021/06/11 12:15:14;;;;;;;2.67;1.55;;;27.10;95.80;;;;;;1832602;77;21683;-78
2021/06/11 12:17:42;;;;;;;2.22;1.42;;;27.10;95.20;;;;;;1834584;77;21237;-78
2021/06/11 12:20:11;;;;;;;4.10;1.60;;;27.10;95.10;;;;;;1831828;77;21582;-79
2021/06/11 12:22:39;;;;;;;4.42;1.77;;;27.10;94.30;;;;;;1833290;77;21167;-78
2021/06/11 12:25:07;;;;;;;4.67;1.77;;;27.20;94.50;;;;;;1833327;77;21173;-79
2021/06/11 12:27:35;;;;;;;4.42;1.60;;;27.10;94.50;;;;;;1824577;77;21122;-79
2021/06/11 12:30:03;;;;;;;5.60;1.45;;;27.10;95.50;;;;;;1838036;77;21135;-78
2021/06/11 12:32:31;;;;;;;3.02;1.50;;;27.10;95.10;;;;;;1834038;77;21107;-77
2021/06/11 12:34:58;;;;;;;1.95;0.93;;;27.00;94.50;;;;;;1825275;77;21077;-79
2021/06/11 12:37:26;;;;;;;4.10;1.22;;;27.10;95.00;;;;;;1830707;78;21065;-79
2021/06/11 12:39:54;;;;;;;1.35;1.00;;;27.10;95.00;;;;;;1834275;77;21135;-78
2021/06/11 12:42:30;;;;;;;2.17;1.02;;;27.10;95.30;;;;;;1828585;78;21598;-78
2021/06/11 12:44:55;;;;;;;3.33;1.30;;;27.10;96.10;;;;;;1828359;77;21157;-79
2021/06/11 12:47:22;;;;;;;1.92;1.27;;;27.00;94.90;;;;;;1833558;77;21093;-79
2021/06/11 12:49:50;;;;;;;2.05;1.10;;;27.00;94.80;;;;;;1831843;77;21159;-79
2021/06/11 12:52:17;;;;;;;4.62;1.30;;;27.00;95.00;;;;;;1834900;77;21150;-79
2021/06/11 12:54:45;;;;;;;1.10;0.98;;;27.00;95.20;;;;;;1833987;78;21042;-79
2021/06/11 12:57:16;;;;;;;3.75;1.17;;;27.00;95.30;;;;;;1825939;77;21166;-80